sensor_id;sensor_type;location;lat;lon;timestamp;temperature;humidity
46085;DHT22;31823;47.032;8.310;2022-07-29T00:00:43;17.00;99.90
46085;DHT22;31823;47.032;8.310;2022-07-29T00:03:11;17.00;99.90
46085;DHT22;31823;47.032;8.310;2022-07-29T00:05:44;17.00;99.90
46085;DHT22;31823;47.032;8.310;2022-07-29T00:08:10;17.00;99.90
46085;DHT22;31823;47.032;8.310;2022-07-29T00:10:36;16.90;99.90
46085;DHT22;31823;47.032;8.310;2022-07-29T00:13:01;16.90;99.90
46085;DHT22;31823;47.032;8.310;2022-07-29T00:15:28;16.90;99.90
46085;DHT22;31823;47.032;8.310;2022-07-29T00:17:54;16.90;99.90
46085;DHT22;31823;47.032;8.310;2022-07-29T00:20:19;16.90;99.90
46085;DHT22;31823;47.032;8.310;2022-07-29T00:22:45;16.90;99.90
46085;DHT22;31823;47.032;8.310;2022-07-29T00:25:12;16.90;99.90
46085;DHT22;31823;47.032;8.310;2022-07-29T00:27:38;16.90;99.90
46085;DHT22;31823;47.032;8.310;2022-07-29T00:30:04;16.90;99.90
46085;DHT22;31823;47.032;8.310;2022-07-29T00:32:30;16.80;99.90
46085;DHT22;31823;47.032;8.310;2022-07-29T00:34:56;16.80;99.90
46085;DHT22;31823;47.032;8.310;2022-07-29T00:37:40;16.80;99.90
46085;DHT22;31823;47.032;8.310;2022-07-29T00:40:09;16.80;99.90
46085;DHT22;31823;47.032;8.310;2022-07-29T00:42:46;16.80;99.90
46085;DHT22;31823;47.032;8.310;2022-07-29T00:45:12;16.80;99.90
46085;DHT22;31823;47.032;8.310;2022-07-29T00:47:39;16.70;99.90
46085;DHT22;31823;47.032;8.310;2022-07-29T00:50:06;16.70;99.90
46085;DHT22;31823;47.032;8.310;2022-07-29T00:52:33;16.60;99.90
46085;DHT22;31823;47.032;8.310;2022-07-29T00:55:02;16.70;99.90
46085;DHT22;31823;47.032;8.310;2022-07-29T00:57:28;16.60;99.90
46085;DHT22;31823;47.032;8.310;2022-07-29T00:59:54;16.70;99.90
46085;DHT22;31823;47.032;8.310;2022-07-29T01:02:19;16.70;99.90
46085;DHT22;31823;47.032;8.310;2022-07-29T01:04:45;16.70;99.90
46085;DHT22;31823;47.032;8.310;2022-07-29T01:07:11;16.60;99.90
46085;DHT22;31823;47.032;8.310;2022-07-29T01:09:37;16.60;99.90
46085;DHT22;31823;47.032;8.310;2022-07-29T01:12:04;16.60;99.90
46085;DHT22;31823;47.032;8.310;2022-07-29T01:14:31;16.60;99.90
46085;DHT22;31823;47.032;8.310;2022-07-29T01:17:12;16.50;99.90
46085;DHT22;31823;47.032;8.310;2022-07-29T01:22:25;16.50;99.90
46085;DHT22;31823;47.032;8.310;2022-07-29T01:30:25;16.30;99.90
46085;DHT22;31823;47.032;8.310;2022-07-29T01:32:56;16.30;99.90
46085;DHT22;31823;47.032;8.310;2022-07-29T01:35:28;16.20;99.90
46085;DHT22;31823;47.032;8.310;2022-07-29T01:38:05;16.20;99.90
46085;DHT22;31823;47.032;8.310;2022-07-29T01:43:11;16.10;99.90
46085;DHT22;31823;47.032;8.310;2022-07-29T01:45:45;16.10;99.90
46085;DHT22;31823;47.032;8.310;2022-07-29T01:50:55;16.10;99.90
46085;DHT22;31823;47.032;8.310;2022-07-29T01:53:38;16.10;99.90
46085;DHT22;31823;47.032;8.310;2022-07-29T01:56:09;16.10;99.90
46085;DHT22;31823;47.032;8.310;2022-07-29T01:58:37;16.00;99.90
46085;DHT22;31823;47.032;8.310;2022-07-29T02:01:24;16.00;99.90
46085;DHT22;31823;47.032;8.310;2022-07-29T02:03:52;15.90;99.90
46085;DHT22;31823;47.032;8.310;2022-07-29T02:06:21;15.90;99.90
46085;DHT22;31823;47.032;8.310;2022-07-29T02:08:49;16.00;99.90
46085;DHT22;31823;47.032;8.310;2022-07-29T02:11:15;16.00;99.90
46085;DHT22;31823;47.032;8.310;2022-07-29T02:13:42;15.90;99.90
46085;DHT22;31823;47.032;8.310;2022-07-29T02:16:09;16.00;99.90
46085;DHT22;31823;47.032;8.310;2022-07-29T02:18:40;16.00;99.90
46085;DHT22;31823;47.032;8.310;2022-07-29T02:21:07;16.00;99.90
46085;DHT22;31823;47.032;8.310;2022-07-29T02:23:36;15.90;99.90
46085;DHT22;31823;47.032;8.310;2022-07-29T02:26:02;15.90;99.90
46085;DHT22;31823;47.032;8.310;2022-07-29T02:28:29;15.90;99.90
46085;DHT22;31823;47.032;8.310;2022-07-29T02:30:59;15.90;99.90
46085;DHT22;31823;47.032;8.310;2022-07-29T02:33:26;15.90;99.90
46085;DHT22;31823;47.032;8.310;2022-07-29T02:35:53;15.90;99.90
46085;DHT22;31823;47.032;8.310;2022-07-29T02:38:21;15.90;99.90
46085;DHT22;31823;47.032;8.310;2022-07-29T02:41:11;15.90;99.90
46085;DHT22;31823;47.032;8.310;2022-07-29T02:43:39;15.80;99.90
46085;DHT22;31823;47.032;8.310;2022-07-29T02:46:08;15.90;99.90
46085;DHT22;31823;47.032;8.310;2022-07-29T02:48:47;15.80;99.90
46085;DHT22;31823;47.032;8.310;2022-07-29T02:51:19;15.80;99.90
46085;DHT22;31823;47.032;8.310;2022-07-29T02:53:51;15.80;99.90
46085;DHT22;31823;47.032;8.310;2022-07-29T02:56:25;15.80;99.90
46085;DHT22;31823;47.032;8.310;2022-07-29T02:58:55;15.80;99.90
46085;DHT22;31823;47.032;8.310;2022-07-29T03:01:23;15.80;99.90
46085;DHT22;31823;47.032;8.310;2022-07-29T03:03:53;15.80;99.90
46085;DHT22;31823;47.032;8.310;2022-07-29T03:06:21;15.80;99.90
46085;DHT22;31823;47.032;8.310;2022-07-29T03:08:47;15.70;99.90
46085;DHT22;31823;47.032;8.310;2022-07-29T03:11:15;15.80;99.90
46085;DHT22;31823;47.032;8.310;2022-07-29T03:13:42;15.80;99.90
46085;DHT22;31823;47.032;8.310;2022-07-29T03:16:09;15.90;99.90
46085;DHT22;31823;47.032;8.310;2022-07-29T03:18:35;15.90;99.90
46085;DHT22;31823;47.032;8.310;2022-07-29T03:21:02;15.90;99.90
46085;DHT22;31823;47.032;8.310;2022-07-29T03:23:28;16.00;99.90
46085;DHT22;31823;47.032;8.310;2022-07-29T03:25:54;16.00;99.90
46085;DHT22;31823;47.032;8.310;2022-07-29T03:28:20;16.00;99.90
46085;DHT22;31823;47.032;8.310;2022-07-29T03:30:47;15.90;99.90
46085;DHT22;31823;47.032;8.310;2022-07-29T03:33:12;15.90;99.90
46085;DHT22;31823;47.032;8.310;2022-07-29T03:35:39;15.80;99.90
46085;DHT22;31823;47.032;8.310;2022-07-29T03:38:04;15.80;99.90
46085;DHT22;31823;47.032;8.310;2022-07-29T03:40:53;15.80;99.90
46085;DHT22;31823;47.032;8.310;2022-07-29T03:43:20;15.90;99.90
46085;DHT22;31823;47.032;8.310;2022-07-29T03:45:51;15.90;99.90
46085;DHT22;31823;47.032;8.310;2022-07-29T03:48:20;15.90;99.90
46085;DHT22;31823;47.032;8.310;2022-07-29T03:50:47;16.00;99.90
46085;DHT22;31823;47.032;8.310;2022-07-29T03:53:13;16.00;99.90
46085;DHT22;31823;47.032;8.310;2022-07-29T03:55:46;16.00;99.90
46085;DHT22;31823;47.032;8.310;2022-07-29T03:58:14;16.10;99.90
46085;DHT22;31823;47.032;8.310;2022-07-29T04:00:40;16.20;99.90
46085;DHT22;31823;47.032;8.310;2022-07-29T04:03:07;16.10;99.90
46085;DHT22;31823;47.032;8.310;2022-07-29T04:05:33;16.20;99.90
46085;DHT22;31823;47.032;8.310;2022-07-29T04:07:59;16.30;99.90
46085;DHT22;31823;47.032;8.310;2022-07-29T04:10:25;16.30;99.90
46085;DHT22;31823;47.032;8.310;2022-07-29T04:12:51;16.20;99.90
46085;DHT22;31823;47.032;8.310;2022-07-29T04:15:16;16.30;99.90
46085;DHT22;31823;47.032;8.310;2022-07-29T04:17:42;16.30;99.90
46085;DHT22;31823;47.032;8.310;2022-07-29T04:20:09;16.30;99.90
46085;DHT22;31823;47.032;8.310;2022-07-29T04:22:35;16.40;99.90
46085;DHT22;31823;47.032;8.310;2022-07-29T04:25:01;16.40;99.90
46085;DHT22;31823;47.032;8.310;2022-07-29T04:27:26;16.40;99.90
46085;DHT22;31823;47.032;8.310;2022-07-29T04:29:52;16.30;99.90
46085;DHT22;31823;47.032;8.310;2022-07-29T04:32:18;16.30;99.90
46085;DHT22;31823;47.032;8.310;2022-07-29T04:34:43;16.30;99.90
46085;DHT22;31823;47.032;8.310;2022-07-29T04:37:11;16.30;99.90
46085;DHT22;31823;47.032;8.310;2022-07-29T04:39:37;16.40;99.90
46085;DHT22;31823;47.032;8.310;2022-07-29T04:42:03;16.40;99.90
46085;DHT22;31823;47.032;8.310;2022-07-29T04:44:29;16.50;99.90
46085;DHT22;31823;47.032;8.310;2022-07-29T04:46:55;16.40;99.90
46085;DHT22;31823;47.032;8.310;2022-07-29T04:49:21;16.60;99.90
46085;DHT22;31823;47.032;8.310;2022-07-29T04:51:47;16.70;99.90
46085;DHT22;31823;47.032;8.310;2022-07-29T04:54:13;16.60;99.90
46085;DHT22;31823;47.032;8.310;2022-07-29T04:56:38;16.60;99.90
46085;DHT22;31823;47.032;8.310;2022-07-29T04:59:04;16.60;99.90
46085;DHT22;31823;47.032;8.310;2022-07-29T05:01:30;16.60;99.90
46085;DHT22;31823;47.032;8.310;2022-07-29T05:03:55;16.60;99.90
46085;DHT22;31823;47.032;8.310;2022-07-29T05:06:21;16.60;99.90
46085;DHT22;31823;47.032;8.310;2022-07-29T05:08:46;16.60;99.90
46085;DHT22;31823;47.032;8.310;2022-07-29T05:11:12;16.60;99.90
46085;DHT22;31823;47.032;8.310;2022-07-29T05:13:38;16.60;99.90
46085;DHT22;31823;47.032;8.310;2022-07-29T05:16:04;16.60;99.90
46085;DHT22;31823;47.032;8.310;2022-07-29T05:18:30;16.60;99.90
46085;DHT22;31823;47.032;8.310;2022-07-29T05:20:56;16.80;99.90
46085;DHT22;31823;47.032;8.310;2022-07-29T05:23:22;16.90;99.90
46085;DHT22;31823;47.032;8.310;2022-07-29T05:25:47;16.80;99.90
46085;DHT22;31823;47.032;8.310;2022-07-29T05:28:13;16.90;99.90
46085;DHT22;31823;47.032;8.310;2022-07-29T05:30:39;17.00;99.90
46085;DHT22;31823;47.032;8.310;2022-07-29T05:33:04;17.10;99.90
46085;DHT22;31823;47.032;8.310;2022-07-29T05:35:30;17.00;99.90
46085;DHT22;31823;47.032;8.310;2022-07-29T05:37:56;17.00;99.90
46085;DHT22;31823;47.032;8.310;2022-07-29T05:40:21;16.90;99.90
46085;DHT22;31823;47.032;8.310;2022-07-29T05:42:47;16.90;99.90
46085;DHT22;31823;47.032;8.310;2022-07-29T05:45:13;17.00;99.90
46085;DHT22;31823;47.032;8.310;2022-07-29T05:47:38;16.90;99.90
46085;DHT22;31823;47.032;8.310;2022-07-29T05:50:04;17.00;99.90
46085;DHT22;31823;47.032;8.310;2022-07-29T05:52:30;16.90;99.90
46085;DHT22;31823;47.032;8.310;2022-07-29T05:54:56;16.90;99.90
46085;DHT22;31823;47.032;8.310;2022-07-29T05:57:23;17.00;99.90
46085;DHT22;31823;47.032;8.310;2022-07-29T05:59:49;17.00;99.90
46085;DHT22;31823;47.032;8.310;2022-07-29T06:02:16;17.20;99.90
46085;DHT22;31823;47.032;8.310;2022-07-29T06:04:42;17.20;99.90
46085;DHT22;31823;47.032;8.310;2022-07-29T06:07:08;17.30;99.90
46085;DHT22;31823;47.032;8.310;2022-07-29T06:09:34;17.40;99.90
46085;DHT22;31823;47.032;8.310;2022-07-29T06:12:00;17.30;99.90
46085;DHT22;31823;47.032;8.310;2022-07-29T06:14:26;17.40;99.90
46085;DHT22;31823;47.032;8.310;2022-07-29T06:16:54;17.70;99.90
46085;DHT22;31823;47.032;8.310;2022-07-29T06:19:19;18.00;99.90
46085;DHT22;31823;47.032;8.310;2022-07-29T06:21:46;18.10;99.90
46085;DHT22;31823;47.032;8.310;2022-07-29T06:24:12;17.60;99.90
46085;DHT22;31823;47.032;8.310;2022-07-29T06:26:39;17.30;99.90
46085;DHT22;31823;47.032;8.310;2022-07-29T06:29:06;17.10;99.90
46085;DHT22;31823;47.032;8.310;2022-07-29T06:31:32;17.00;99.90
46085;DHT22;31823;47.032;8.310;2022-07-29T06:33:57;17.10;99.90
46085;DHT22;31823;47.032;8.310;2022-07-29T06:36:23;17.20;99.90
46085;DHT22;31823;47.032;8.310;2022-07-29T06:38:48;17.20;99.90
46085;DHT22;31823;47.032;8.310;2022-07-29T06:41:14;17.40;99.90
46085;DHT22;31823;47.032;8.310;2022-07-29T06:43:43;17.40;99.90
46085;DHT22;31823;47.032;8.310;2022-07-29T06:46:11;17.70;99.90
46085;DHT22;31823;47.032;8.310;2022-07-29T06:48:39;17.90;99.90
46085;DHT22;31823;47.032;8.310;2022-07-29T06:51:05;18.00;99.90
46085;DHT22;31823;47.032;8.310;2022-07-29T06:53:32;17.90;99.90
46085;DHT22;31823;47.032;8.310;2022-07-29T06:56:02;17.80;99.90
46085;DHT22;31823;47.032;8.310;2022-07-29T06:58:29;17.70;99.90
46085;DHT22;31823;47.032;8.310;2022-07-29T07:00:57;17.60;99.90
46085;DHT22;31823;47.032;8.310;2022-07-29T07:03:23;17.60;99.90
46085;DHT22;31823;47.032;8.310;2022-07-29T07:05:49;17.50;99.90
46085;DHT22;31823;47.032;8.310;2022-07-29T07:08:14;17.60;99.90
46085;DHT22;31823;47.032;8.310;2022-07-29T07:10:42;17.60;99.90
46085;DHT22;31823;47.032;8.310;2022-07-29T07:13:07;17.70;99.90
46085;DHT22;31823;47.032;8.310;2022-07-29T07:15:35;17.70;99.90
46085;DHT22;31823;47.032;8.310;2022-07-29T07:18:00;17.80;99.90
46085;DHT22;31823;47.032;8.310;2022-07-29T07:20:26;17.80;99.90
46085;DHT22;31823;47.032;8.310;2022-07-29T07:22:52;17.90;99.90
46085;DHT22;31823;47.032;8.310;2022-07-29T07:25:18;17.80;99.90
46085;DHT22;31823;47.032;8.310;2022-07-29T07:27:44;17.90;99.90
46085;DHT22;31823;47.032;8.310;2022-07-29T07:30:10;17.90;99.90
46085;DHT22;31823;47.032;8.310;2022-07-29T07:32:36;17.90;99.90
46085;DHT22;31823;47.032;8.310;2022-07-29T07:35:07;18.20;99.90
46085;DHT22;31823;47.032;8.310;2022-07-29T07:37:33;18.50;99.90
46085;DHT22;31823;47.032;8.310;2022-07-29T07:39:58;18.40;99.90
46085;DHT22;31823;47.032;8.310;2022-07-29T07:42:24;18.20;99.90
46085;DHT22;31823;47.032;8.310;2022-07-29T07:44:50;18.10;99.90
46085;DHT22;31823;47.032;8.310;2022-07-29T07:47:17;18.20;99.90
46085;DHT22;31823;47.032;8.310;2022-07-29T07:49:50;18.40;99.90
46085;DHT22;31823;47.032;8.310;2022-07-29T07:52:17;18.40;99.90
46085;DHT22;31823;47.032;8.310;2022-07-29T07:54:43;18.30;99.90
46085;DHT22;31823;47.032;8.310;2022-07-29T07:57:10;18.40;99.90
46085;DHT22;31823;47.032;8.310;2022-07-29T07:59:36;18.70;99.90
46085;DHT22;31823;47.032;8.310;2022-07-29T08:02:04;18.60;99.90
46085;DHT22;31823;47.032;8.310;2022-07-29T08:04:30;18.60;99.90
46085;DHT22;31823;47.032;8.310;2022-07-29T08:06:56;18.70;99.90
46085;DHT22;31823;47.032;8.310;2022-07-29T08:09:23;18.90;99.90
46085;DHT22;31823;47.032;8.310;2022-07-29T08:11:48;18.90;99.90
46085;DHT22;31823;47.032;8.310;2022-07-29T08:14:14;18.90;99.90
46085;DHT22;31823;47.032;8.310;2022-07-29T08:16:40;19.20;99.90
46085;DHT22;31823;47.032;8.310;2022-07-29T08:19:07;19.80;99.90
46085;DHT22;31823;47.032;8.310;2022-07-29T08:21:33;19.70;99.90
46085;DHT22;31823;47.032;8.310;2022-07-29T08:23:58;19.60;99.90
46085;DHT22;31823;47.032;8.310;2022-07-29T08:26:50;20.00;99.90
46085;DHT22;31823;47.032;8.310;2022-07-29T08:29:15;20.60;99.90
46085;DHT22;31823;47.032;8.310;2022-07-29T08:31:42;20.30;99.90
46085;DHT22;31823;47.032;8.310;2022-07-29T08:34:08;20.10;99.90
46085;DHT22;31823;47.032;8.310;2022-07-29T08:36:34;20.40;99.90
46085;DHT22;31823;47.032;8.310;2022-07-29T08:39:00;21.20;99.90
46085;DHT22;31823;47.032;8.310;2022-07-29T08:41:26;21.20;99.90
46085;DHT22;31823;47.032;8.310;2022-07-29T08:43:52;21.10;99.90
46085;DHT22;31823;47.032;8.310;2022-07-29T08:46:19;21.30;99.90
46085;DHT22;31823;47.032;8.310;2022-07-29T08:48:45;21.70;99.90
46085;DHT22;31823;47.032;8.310;2022-07-29T08:51:20;21.30;99.90
46085;DHT22;31823;47.032;8.310;2022-07-29T08:53:47;20.90;99.90
46085;DHT22;31823;47.032;8.310;2022-07-29T08:56:18;20.70;99.90
46085;DHT22;31823;47.032;8.310;2022-07-29T08:58:47;21.00;99.90
46085;DHT22;31823;47.032;8.310;2022-07-29T09:01:20;21.50;99.90
46085;DHT22;31823;47.032;8.310;2022-07-29T09:03:47;21.70;99.90
46085;DHT22;31823;47.032;8.310;2022-07-29T09:06:15;21.70;99.90
46085;DHT22;31823;47.032;8.310;2022-07-29T09:08:42;21.50;99.90
46085;DHT22;31823;47.032;8.310;2022-07-29T09:11:08;21.60;99.90
46085;DHT22;31823;47.032;8.310;2022-07-29T09:13:34;21.70;99.90
46085;DHT22;31823;47.032;8.310;2022-07-29T09:16:00;21.90;99.90
46085;DHT22;31823;47.032;8.310;2022-07-29T09:18:40;21.90;99.90
46085;DHT22;31823;47.032;8.310;2022-07-29T09:21:08;22.30;99.90
46085;DHT22;31823;47.032;8.310;2022-07-29T09:24:05;22.40;99.90
46085;DHT22;31823;47.032;8.310;2022-07-29T09:26:34;22.40;99.90
46085;DHT22;31823;47.032;8.310;2022-07-29T09:29:08;22.30;99.90
46085;DHT22;31823;47.032;8.310;2022-07-29T09:31:37;22.20;99.90
46085;DHT22;31823;47.032;8.310;2022-07-29T09:34:04;21.90;99.90
46085;DHT22;31823;47.032;8.310;2022-07-29T09:36:30;21.10;99.90
46085;DHT22;31823;47.032;8.310;2022-07-29T09:39:00;20.90;99.90
46085;DHT22;31823;47.032;8.310;2022-07-29T09:41:27;20.80;99.90
46085;DHT22;31823;47.032;8.310;2022-07-29T09:43:56;20.80;99.90
46085;DHT22;31823;47.032;8.310;2022-07-29T09:46:23;21.00;99.90
46085;DHT22;31823;47.032;8.310;2022-07-29T09:49:08;21.10;99.90
46085;DHT22;31823;47.032;8.310;2022-07-29T09:51:35;22.30;99.90
46085;DHT22;31823;47.032;8.310;2022-07-29T09:54:01;22.90;99.90
46085;DHT22;31823;47.032;8.310;2022-07-29T09:56:42;23.50;99.90
46085;DHT22;31823;47.032;8.310;2022-07-29T09:59:09;23.30;99.90
46085;DHT22;31823;47.032;8.310;2022-07-29T10:01:37;23.80;99.90
46085;DHT22;31823;47.032;8.310;2022-07-29T10:04:03;24.20;99.90
46085;DHT22;31823;47.032;8.310;2022-07-29T10:06:28;24.50;99.90
46085;DHT22;31823;47.032;8.310;2022-07-29T10:08:54;23.60;99.90
46085;DHT22;31823;47.032;8.310;2022-07-29T10:11:20;22.90;99.90
46085;DHT22;31823;47.032;8.310;2022-07-29T10:13:48;23.00;99.90
46085;DHT22;31823;47.032;8.310;2022-07-29T10:16:14;22.40;99.90
46085;DHT22;31823;47.032;8.310;2022-07-29T10:18:42;22.10;99.90
46085;DHT22;31823;47.032;8.310;2022-07-29T10:21:09;21.40;99.90
46085;DHT22;31823;47.032;8.310;2022-07-29T10:23:35;21.30;99.90
46085;DHT22;31823;47.032;8.310;2022-07-29T10:26:03;21.50;99.90
46085;DHT22;31823;47.032;8.310;2022-07-29T10:28:30;21.90;99.90
46085;DHT22;31823;47.032;8.310;2022-07-29T10:31:01;22.00;99.90
46085;DHT22;31823;47.032;8.310;2022-07-29T10:33:45;21.50;99.90
46085;DHT22;31823;47.032;8.310;2022-07-29T10:36:37;21.00;99.90
46085;DHT22;31823;47.032;8.310;2022-07-29T10:44:42;20.40;99.90
46085;DHT22;31823;47.032;8.310;2022-07-29T10:47:08;20.40;99.90
46085;DHT22;31823;47.032;8.310;2022-07-29T10:49:59;20.30;99.90
46085;DHT22;31823;47.032;8.310;2022-07-29T10:52:54;20.30;99.90
46085;DHT22;31823;47.032;8.310;2022-07-29T10:55:36;20.30;99.90
46085;DHT22;31823;47.032;8.310;2022-07-29T10:58:21;20.20;99.90
46085;DHT22;31823;47.032;8.310;2022-07-29T11:00:54;20.20;99.90
46085;DHT22;31823;47.032;8.310;2022-07-29T11:06:11;20.20;99.90
46085;DHT22;31823;47.032;8.310;2022-07-29T11:08:36;20.10;99.90
46085;DHT22;31823;47.032;8.310;2022-07-29T11:13:49;20.00;99.90
46085;DHT22;31823;47.032;8.310;2022-07-29T11:16:16;20.10;99.90
46085;DHT22;31823;47.032;8.310;2022-07-29T11:21:41;20.20;99.90
46085;DHT22;31823;47.032;8.310;2022-07-29T11:24:14;20.10;99.90
46085;DHT22;31823;47.032;8.310;2022-07-29T11:26:41;20.20;99.90
46085;DHT22;31823;47.032;8.310;2022-07-29T11:29:19;20.30;99.90
46085;DHT22;31823;47.032;8.310;2022-07-29T11:31:49;20.20;99.90
46085;DHT22;31823;47.032;8.310;2022-07-29T11:37:22;20.10;99.90
46085;DHT22;31823;47.032;8.310;2022-07-29T11:44:58;20.00;99.90
46085;DHT22;31823;47.032;8.310;2022-07-29T11:47:25;19.90;99.90
46085;DHT22;31823;47.032;8.310;2022-07-29T11:49:52;19.90;99.90
46085;DHT22;31823;47.032;8.310;2022-07-29T11:52:19;19.90;99.90
46085;DHT22;31823;47.032;8.310;2022-07-29T11:54:48;19.80;99.90
46085;DHT22;31823;47.032;8.310;2022-07-29T11:57:16;19.80;99.90
46085;DHT22;31823;47.032;8.310;2022-07-29T11:59:44;19.80;99.90
46085;DHT22;31823;47.032;8.310;2022-07-29T12:02:11;19.80;99.90
46085;DHT22;31823;47.032;8.310;2022-07-29T12:04:51;19.70;99.90
46085;DHT22;31823;47.032;8.310;2022-07-29T12:07:16;19.70;99.90
46085;DHT22;31823;47.032;8.310;2022-07-29T12:09:53;19.60;99.90
46085;DHT22;31823;47.032;8.310;2022-07-29T12:12:18;19.50;99.90
46085;DHT22;31823;47.032;8.310;2022-07-29T12:14:44;19.40;99.90
46085;DHT22;31823;47.032;8.310;2022-07-29T12:17:34;19.40;99.90
46085;DHT22;31823;47.032;8.310;2022-07-29T12:20:03;19.40;99.90
46085;DHT22;31823;47.032;8.310;2022-07-29T12:22:29;19.30;99.90
46085;DHT22;31823;47.032;8.310;2022-07-29T12:25:01;19.20;99.90
46085;DHT22;31823;47.032;8.310;2022-07-29T12:27:28;19.20;99.90
46085;DHT22;31823;47.032;8.310;2022-07-29T12:30:02;19.20;99.90
46085;DHT22;31823;47.032;8.310;2022-07-29T12:32:45;19.20;99.90
46085;DHT22;31823;47.032;8.310;2022-07-29T12:35:17;19.20;99.90
46085;DHT22;31823;47.032;8.310;2022-07-29T12:37:45;19.30;99.90
46085;DHT22;31823;47.032;8.310;2022-07-29T12:40:14;19.30;99.90
46085;DHT22;31823;47.032;8.310;2022-07-29T12:42:41;19.20;99.90
46085;DHT22;31823;47.032;8.310;2022-07-29T12:45:30;19.30;99.90
46085;DHT22;31823;47.032;8.310;2022-07-29T12:47:56;19.50;99.90
46085;DHT22;31823;47.032;8.310;2022-07-29T12:50:22;19.40;99.90
46085;DHT22;31823;47.032;8.310;2022-07-29T12:52:48;19.20;99.90
46085;DHT22;31823;47.032;8.310;2022-07-29T12:55:14;19.10;99.90
46085;DHT22;31823;47.032;8.310;2022-07-29T12:57:48;19.10;99.90
46085;DHT22;31823;47.032;8.310;2022-07-29T13:00:14;19.10;99.90
46085;DHT22;31823;47.032;8.310;2022-07-29T13:02:42;19.20;99.90
46085;DHT22;31823;47.032;8.310;2022-07-29T13:05:10;19.30;99.90
46085;DHT22;31823;47.032;8.310;2022-07-29T13:07:37;19.20;99.90
46085;DHT22;31823;47.032;8.310;2022-07-29T13:10:17;19.00;99.90
46085;DHT22;31823;47.032;8.310;2022-07-29T13:15:27;18.90;99.90
46085;DHT22;31823;47.032;8.310;2022-07-29T13:17:53;18.90;99.90
46085;DHT22;31823;47.032;8.310;2022-07-29T13:20:24;19.00;99.90
46085;DHT22;31823;47.032;8.310;2022-07-29T13:22:50;19.00;99.90
46085;DHT22;31823;47.032;8.310;2022-07-29T13:25:24;19.10;99.90
46085;DHT22;31823;47.032;8.310;2022-07-29T13:27:50;19.00;99.90
46085;DHT22;31823;47.032;8.310;2022-07-29T13:30:16;19.00;99.90
46085;DHT22;31823;47.032;8.310;2022-07-29T13:32:42;19.20;99.90
46085;DHT22;31823;47.032;8.310;2022-07-29T13:35:08;19.10;99.90
46085;DHT22;31823;47.032;8.310;2022-07-29T13:37:35;19.10;99.90
46085;DHT22;31823;47.032;8.310;2022-07-29T13:40:04;19.00;99.90
46085;DHT22;31823;47.032;8.310;2022-07-29T13:42:31;19.20;99.90
46085;DHT22;31823;47.032;8.310;2022-07-29T13:44:57;19.10;99.90
46085;DHT22;31823;47.032;8.310;2022-07-29T13:47:23;19.30;99.90
46085;DHT22;31823;47.032;8.310;2022-07-29T13:49:48;19.50;99.90
46085;DHT22;31823;47.032;8.310;2022-07-29T13:52:14;19.50;99.90
46085;DHT22;31823;47.032;8.310;2022-07-29T13:54:41;19.70;99.90
46085;DHT22;31823;47.032;8.310;2022-07-29T13:57:07;19.70;99.90
46085;DHT22;31823;47.032;8.310;2022-07-29T13:59:33;19.30;99.90
46085;DHT22;31823;47.032;8.310;2022-07-29T14:01:59;19.30;99.90
46085;DHT22;31823;47.032;8.310;2022-07-29T14:04:25;19.20;99.90
46085;DHT22;31823;47.032;8.310;2022-07-29T14:06:50;19.10;99.90
46085;DHT22;31823;47.032;8.310;2022-07-29T14:09:16;19.10;99.90
46085;DHT22;31823;47.032;8.310;2022-07-29T14:11:42;19.00;99.90
46085;DHT22;31823;47.032;8.310;2022-07-29T14:14:08;19.20;99.90
46085;DHT22;31823;47.032;8.310;2022-07-29T14:16:36;19.20;99.90
46085;DHT22;31823;47.032;8.310;2022-07-29T14:19:02;19.10;99.90
46085;DHT22;31823;47.032;8.310;2022-07-29T14:21:27;19.20;99.90
46085;DHT22;31823;47.032;8.310;2022-07-29T14:23:53;19.20;99.90
46085;DHT22;31823;47.032;8.310;2022-07-29T14:26:20;19.30;99.90
46085;DHT22;31823;47.032;8.310;2022-07-29T14:28:47;19.60;99.90
46085;DHT22;31823;47.032;8.310;2022-07-29T14:31:13;19.50;99.90
46085;DHT22;31823;47.032;8.310;2022-07-29T14:33:39;19.10;99.90
46085;DHT22;31823;47.032;8.310;2022-07-29T14:36:05;19.00;99.90
46085;DHT22;31823;47.032;8.310;2022-07-29T14:38:30;19.20;99.90
46085;DHT22;31823;47.032;8.310;2022-07-29T14:40:56;19.00;99.90
46085;DHT22;31823;47.032;8.310;2022-07-29T14:43:22;18.70;99.90
46085;DHT22;31823;47.032;8.310;2022-07-29T14:45:47;18.70;99.90
46085;DHT22;31823;47.032;8.310;2022-07-29T14:48:13;18.60;99.90
46085;DHT22;31823;47.032;8.310;2022-07-29T14:50:39;18.40;99.90
46085;DHT22;31823;47.032;8.310;2022-07-29T14:53:04;18.50;99.90
46085;DHT22;31823;47.032;8.310;2022-07-29T14:55:30;18.50;99.90
46085;DHT22;31823;47.032;8.310;2022-07-29T14:57:56;18.20;99.90
46085;DHT22;31823;47.032;8.310;2022-07-29T15:00:22;18.00;99.90
46085;DHT22;31823;47.032;8.310;2022-07-29T15:02:48;17.70;99.90
46085;DHT22;31823;47.032;8.310;2022-07-29T15:05:14;17.60;99.90
46085;DHT22;31823;47.032;8.310;2022-07-29T15:07:40;17.60;99.90
46085;DHT22;31823;47.032;8.310;2022-07-29T15:10:06;17.70;99.90
46085;DHT22;31823;47.032;8.310;2022-07-29T15:12:32;17.70;99.90
46085;DHT22;31823;47.032;8.310;2022-07-29T15:14:58;17.70;99.90
46085;DHT22;31823;47.032;8.310;2022-07-29T15:17:25;17.50;99.90
46085;DHT22;31823;47.032;8.310;2022-07-29T15:19:51;17.30;99.90
46085;DHT22;31823;47.032;8.310;2022-07-29T15:22:17;17.40;99.90
46085;DHT22;31823;47.032;8.310;2022-07-29T15:24:43;17.60;99.90
46085;DHT22;31823;47.032;8.310;2022-07-29T15:27:09;17.70;99.90
46085;DHT22;31823;47.032;8.310;2022-07-29T15:29:40;17.60;99.90
46085;DHT22;31823;47.032;8.310;2022-07-29T15:32:06;17.60;99.90
46085;DHT22;31823;47.032;8.310;2022-07-29T15:34:34;17.60;99.90
46085;DHT22;31823;47.032;8.310;2022-07-29T15:36:59;17.60;99.90
46085;DHT22;31823;47.032;8.310;2022-07-29T15:39:26;17.70;99.90
46085;DHT22;31823;47.032;8.310;2022-07-29T15:41:52;17.90;99.90
46085;DHT22;31823;47.032;8.310;2022-07-29T15:44:19;17.80;99.90
46085;DHT22;31823;47.032;8.310;2022-07-29T15:46:45;17.80;99.90
46085;DHT22;31823;47.032;8.310;2022-07-29T15:52:06;17.80;99.90
46085;DHT22;31823;47.032;8.310;2022-07-29T15:54:36;17.90;99.90
46085;DHT22;31823;47.032;8.310;2022-07-29T15:57:03;17.90;99.90
46085;DHT22;31823;47.032;8.310;2022-07-29T15:59:30;17.90;99.90
46085;DHT22;31823;47.032;8.310;2022-07-29T16:01:56;17.80;99.90
46085;DHT22;31823;47.032;8.310;2022-07-29T16:04:22;17.90;99.90
46085;DHT22;31823;47.032;8.310;2022-07-29T16:06:48;17.90;99.90
46085;DHT22;31823;47.032;8.310;2022-07-29T16:09:15;17.90;99.90
46085;DHT22;31823;47.032;8.310;2022-07-29T16:11:41;18.00;99.90
46085;DHT22;31823;47.032;8.310;2022-07-29T16:14:07;18.00;99.90
46085;DHT22;31823;47.032;8.310;2022-07-29T16:16:33;18.10;99.90